Nearby METAR Reports

 

KGEU - Glendale, Arizona, USA
Distance from station: S 3mi, 4km
Updated: Sun, 20-Jan-2019 4:52pm MST
Overcast
Overcast
 Wind from calm
Wind: Calm
Temperature: 70°F , 21°C
Dew Point: 34°F , 1°C
Humidity: 27%
Barometer: 29.96 inHg , 1014.6 hPa
Clouds: Overcast
Visibility: 10 miles , 16 km
Cloud details: Few Clouds 20000 ft
Overcast 25000 ft
2019/01/20 23:52 KGEU 202352Z 00000KT 10SM FEW200 OVC250 21/01 A2996
KLUF - Luke Afb/Glendal, Arizona, USA
Distance from station: SW 5mi, 8km
Updated: Sun, 20-Jan-2019 4:58pm MST
Clear
Clear
 Wind from ENE
Wind: ENE 3 mph , 6 km/h
Temperature: 68°F , 20°C
Dew Point: 34°F , 1°C
Humidity: 28%
Barometer: 29.93 inHg , 1013.5 hPa
Clouds: Clear
Visibility: 7 miles , 11 km
2019/01/20 23:58 KLUF 202358Z AUTO 06003KT 7SM CLR 20/01 A2993 RMK AO2 SLP133 T02030012 10214 20161 57024 $
 
KGYR - Goodyear Municip, Arizona, USA
Distance from station: SSW 11mi, 18km
Updated: Sat, 19-Jan-2019 8:47pm MST
NOT Current
Few Clouds
Few Clouds
 Wind from calm
Wind: Calm
Temperature: 57°F , 14°C
Dew Point: 36°F , 2°C
Humidity: 44%
Barometer: 30.19 inHg , 1022.4 hPa
Clouds: Few Clouds
Visibility: 10 miles , 16 km
Cloud details: Few Clouds 25000 ft
2019/01/20 03:47 KGYR 200347Z 00000KT 10SM FEW250 14/02 A3019 RMK LAST
KDVT - Phoenix/Deer Vly, Arizona, USA
Distance from station: ENE 16mi, 26km
Updated: Sun, 20-Jan-2019 4:53pm MST
Clear
Clear
 Wind from calm
Wind: Calm
Temperature: 68°F , 20°C
Dew Point: 34°F , 1°C
Humidity: 28%
Barometer: 29.96 inHg , 1014.6 hPa
Clouds: Clear
Visibility: 10 miles , 16 km
2019/01/20 23:53 KDVT 202353Z 00000KT 10SM CLR 20/01 A2996 RMK AO2 SLP133 T02000006 10211 20167 56019
 
KPHX - Phoenix/Sky Hrbr, Arizona, USA
Distance from station: ESE 19mi, 31km
Updated: Sun, 20-Jan-2019 4:51pm MST
Overcast
Overcast
 Wind from SE
Wind: SE 3 mph , 6 km/h
Temperature: 73°F , 23°C
Dew Point: 28°F , -2°C
Humidity: 19%
Barometer: 29.94 inHg , 1013.9 hPa
Clouds: Overcast
Visibility: 10 miles , 16 km
Cloud details: Few Clouds 20000 ft
Overcast 25000 ft
2019/01/20 23:51 KPHX 202351Z 13003KT 10SM FEW200 OVC250 23/M02 A2994 RMK AO2 SLP128 T02281017 10233 20161 56020 $
KSDL - Scottsdale, Arizona, USA
Distance from station: E 23mi, 37km
Updated: Sun, 20-Jan-2019 4:53pm MST
Clear
Clear
 Wind from calm
Wind: Calm
Temperature: 72°F , 22°C
Dew Point: 28°F , -2°C
Humidity: 20%
Barometer: 29.97 inHg , 1014.9 hPa
Clouds: Clear
Visibility: 10 miles , 16 km
2019/01/20 23:53 KSDL 202353Z 00000KT 10SM CLR 22/M02 A2997 RMK AO2 SLP138 T02171017 10222 20161 56017
 
KBXK - Buckeye, Arizona, USA
Distance from station: WSW 24mi, 39km
Updated: Sun, 20-Jan-2019 5:15pm MST
Clear
Clear
 Wind from SE
Wind: SE 6 mph , 9 km/h
Temperature: 64°F , 18°C
Dew Point: 43°F , 6°C
Humidity: 46%
Barometer: 29.96 inHg , 1014.6 hPa
Clouds: Clear
Visibility: 10 miles , 16 km
2019/01/21 00:15 KBXK 210015Z AUTO 14005KT 10SM CLR 18/06 A2996 RMK AO1
KFFZ - Mesa/Falcon Fld, Arizona, USA
Distance from station: E 35mi, 56km
Updated: Sun, 20-Jan-2019 4:54pm MST
Clear
Clear
 Wind from NE
Wind: NE 5 mph , 7 km/h
Temperature: 72°F , 22°C
Dew Point: 27°F , -3°C
Humidity: 19%
Barometer: 29.96 inHg , 1014.6 hPa
Clouds: Clear
Visibility: 10 miles , 16 km
2019/01/20 23:54 KFFZ 202354Z 04004KT 10SM CLR 22/M03 A2996 RMK AO2 SLP128 T02221033 10233 20167 56016
 
KIWA - Chandler/Mesa, Arizona, USA
Distance from station: ESE 42mi, 68km
Updated: Sun, 20-Jan-2019 4:52pm MST

 Wind from N
Wind: N 3 mph , 6 km/h
Visibility: 20 miles , 32 km
2019/01/20 23:52 KIWA 202352Z 35003KT 20SM BKN20 21/M02 A2997
KCGZ - Casa Granda, Arizona, USA
Distance from station: SE 53mi, 85km
Updated: Sun, 20-Jan-2019 4:56pm MST
Clear
Clear
 Wind from N
Wind: N 6 mph , 9 km/h
Temperature: 68°F , 20°C
Dew Point: 32°F , 0°C
Humidity: 26%
Barometer: 29.96 inHg , 1014.6 hPa
Clouds: Clear
Visibility: 10 miles , 16 km
2019/01/20 23:56 KCGZ 202356Z AUTO 35005KT 10SM CLR 20/00 A2996 RMK AO2 SLP145 T02000000 10211 20156 56019 $
 
KGXF - Gila Bend (aaf), Arizona, USA
Distance from station: SSW 54mi, 87km
Updated: Sun, 20-Jan-2019 4:58pm MST
Clear
Clear
 Wind from calm
Wind: Calm
Temperature: 70°F , 21°C
Dew Point: 32°F , 0°C
Humidity: 25%
Barometer: 29.94 inHg , 1013.9 hPa
Clouds: Clear
Visibility: 10 miles , 16 km
2019/01/20 23:58 KGXF 202358Z AUTO 00000KT 10SM CLR 21/00 A2994 RMK AO2 SLP135 T02101004 10222 20166 57019
KPAN - Payson, Arizona, USA
Distance from station: NE 73mi, 117km
Updated: Sun, 20-Jan-2019 5:15pm MST
Clear
Clear
 Wind from S
Wind: S 6 mph , 9 km/h
Temperature: 52°F , 11°C
Dew Point: 19°F , -7°C
Humidity: 28%
Barometer: 30.09 inHg , 1019 hPa
Clouds: Clear
Visibility: 10 miles , 16 km
2019/01/21 00:15 KPAN 210015Z AUTO 19005KT 10SM CLR 11/M07 A3009 RMK AO2
 
KPRC - Prescott, Arizona, USA
Distance from station: N 75mi, 121km
Updated: Sun, 20-Jan-2019 4:53pm MST
Clear
Clear
 Wind from W
Wind: W 3 mph , 6 km/h
Temperature: 59°F , 15°C
Dew Point: 30°F , -1°C
Humidity: 34%
Barometer: 30.07 inHg , 1018.3 hPa
Clouds: Clear
Visibility: 10 miles , 16 km
2019/01/20 23:53 KPRC 202353Z 27003KT 10SM CLR 15/M01 A3007 RMK AO2 SLP154 T01501006 10161 20089 56018
KSEZ - Sedona, Arizona, USA
Distance from station: NNE 93mi, 150km
Updated: Sun, 20-Jan-2019 5:15pm MST
Clear
Clear
 Wind from calm
Wind: Calm
Temperature: 55°F , 13°C
Dew Point: 30°F , -1°C
Humidity: 38%
Barometer: 30.07 inHg , 1018.3 hPa
Clouds: Clear
Visibility: 10 miles , 16 km
2019/01/21 00:15 KSEZ 210015Z AUTO 00000KT 10SM CLR 13/M01 A3007 RMK AO2
 
KFLG - Flagstaff, Arizona, USA
Distance from station: NNE 114mi, 184km
Updated: Sun, 20-Jan-2019 4:57pm MST
Clear
Clear
 Wind from SW
Wind: SW 12 mph , 19 km/h
Temperature: 46°F , 8°C
Wind Chill: 40°F , 4°C
Dew Point: 25°F , -4°C
Humidity: 43%
Barometer: 30.12 inHg , 1020 hPa
Clouds: Clear
Visibility: 10 miles , 16 km
2019/01/20 23:57 KFLG 202357Z 23010KT 10SM CLR 08/M04 A3012 RMK AO2 SLP183 T00831039 10106 20083 56015
KRYN - Tucson/Ryan Fld, Arizona, USA
Distance from station: SE 118mi, 190km
Updated: Sun, 20-Jan-2019 4:45pm MST
Clear
Clear
 Wind from NW
Wind: NW 8 mph , 13 km/h
Temperature: 72°F , 22°C
Dew Point: 28°F , -2°C
Humidity: 20%
Barometer: 30.01 inHg , 1016.3 hPa
Clouds: Clear
Visibility: 10 miles , 16 km
2019/01/20 23:45 KRYN 202345Z 32007KT 10SM CLR 22/M02 A3001
 
KTUS - Tucson, Arizona, USA
Distance from station: SE 127mi, 204km
Updated: Sun, 20-Jan-2019 4:53pm MST
Clear
Clear
 Wind from WNW
Wind: WNW 8 mph , 13 km/h
Temperature: 72°F , 22°C
Dew Point: 21°F , -6°C
Humidity: 15%
Barometer: 30.01 inHg , 1016.3 hPa
Clouds: Clear
Visibility: 10 miles , 16 km
2019/01/20 23:53 KTUS 202353Z 30007KT 10SM CLR 22/M06 A3001 RMK AO2 SLP136 T02221056 10261 20178 55010
KDMA - Davis/Tucson, Arizona, USA
Distance from station: SE 128mi, 206km
Updated: Sun, 20-Jan-2019 4:58pm MST
Clear
Clear
 Wind from NW
Wind: NW 10 mph , 17 km/h
Temperature: 72°F , 22°C
Dew Point: 25°F , -4°C
Humidity: 17%
Barometer: 29.99 inHg , 1015.6 hPa
Clouds: Clear
Visibility: 10 miles , 16 km
2019/01/20 23:58 KDMA 202358Z AUTO 31009KT 10SM CLR 22/M04 A2999 RMK AO2 SLP133 T02191043 10279 20195 55010 $
 
KINW - Winslow, Arizona, USA
Distance from station: NE 136mi, 219km
Updated: Sun, 20-Jan-2019 4:56pm MST
Clear
Clear
 Wind from calm
Wind: Calm
Temperature: 55°F , 13°C
Dew Point: 27°F , -3°C
Humidity: 33%
Barometer: 30.06 inHg , 1017.9 hPa
Clouds: Clear
Visibility: 10 miles , 16 km
2019/01/20 23:56 KINW 202356Z AUTO 00000KT 10SM CLR 13/M03 A3006 RMK AO2 SLP170 T01281028 10133 20056 56024
KHII - Lake Havasu City, Arizona, USA
Distance from station: WNW 136mi, 220km
Updated: Sun, 20-Jan-2019 5:15pm MST
Clear
Clear
 Wind from calm
Wind: Calm
Temperature: 63°F , 17°C
Dew Point: 39°F , 4°C
Humidity: 42%
Barometer: 29.98 inHg , 1015.2 hPa
Clouds: Clear
Visibility: 10 miles , 16 km
2019/01/21 00:15 KHII 210015Z AUTO 00000KT 10SM CLR 17/04 A2998 RMK AO2